createdAt,value
2017-11-12T00:00:05.654Z,11.10
2017-11-12T00:02:32.089Z,10.92
2017-11-12T00:04:58.463Z,11.07
2017-11-12T00:07:25.777Z,11.05
2017-11-12T00:09:52.180Z,11.03
2017-11-12T00:12:18.542Z,11.01
2017-11-12T00:14:44.991Z,10.94
2017-11-12T00:17:11.433Z,10.93
2017-11-12T00:19:37.847Z,10.93
2017-11-12T00:22:04.175Z,10.97
2017-11-12T00:24:31.433Z,10.94
2017-11-12T00:26:57.837Z,10.89
2017-11-12T00:29:24.302Z,10.88
2017-11-12T00:31:50.736Z,10.91
2017-11-12T00:34:17.182Z,10.95
2017-11-12T00:36:43.584Z,10.99
2017-11-12T00:39:10.045Z,10.98
2017-11-12T00:41:37.215Z,10.99
2017-11-12T00:44:03.627Z,11.01
2017-11-12T00:46:30.061Z,11.02
2017-11-12T00:48:56.380Z,11.02
2017-11-12T00:51:22.838Z,10.98
2017-11-12T00:53:49.201Z,10.91
2017-11-12T00:56:15.616Z,10.91
2017-11-12T00:58:42.832Z,10.89
2017-11-12T01:01:09.284Z,10.84
2017-11-12T01:03:35.821Z,10.78
2017-11-12T01:06:02.283Z,10.72
2017-11-12T01:08:28.802Z,10.54
2017-11-12T01:10:55.227Z,10.58
2017-11-12T01:13:21.774Z,10.48
2017-11-12T01:15:48.916Z,10.41
2017-11-12T01:18:15.351Z,10.32
2017-11-12T01:20:41.785Z,10.23
2017-11-12T01:23:08.161Z,10.23
2017-11-12T01:25:34.623Z,10.24
2017-11-12T01:28:01.091Z,10.15
2017-11-12T01:30:27.533Z,10.08
2017-11-12T01:32:54.675Z,10.03
2017-11-12T01:35:21.119Z,10.01
2017-11-12T01:37:47.575Z,9.99
2017-11-12T01:40:13.916Z,9.97
2017-11-12T01:42:40.384Z,9.91
2017-11-12T01:45:06.850Z,9.82
2017-11-12T01:47:33.284Z,9.75
2017-11-12T01:50:00.408Z,9.68
2017-11-12T01:52:26.916Z,9.62
2017-11-12T01:54:53.283Z,9.57
2017-11-12T01:57:19.731Z,9.55
2017-11-12T01:59:46.175Z,9.56
2017-11-12T02:02:12.619Z,9.50
2017-11-12T02:04:39.073Z,9.40
2017-11-12T02:07:06.298Z,9.47
2017-11-12T02:09:32.742Z,9.56
2017-11-12T02:11:59.136Z,9.58
2017-11-12T02:14:25.603Z,9.55
2017-11-12T02:16:52.044Z,9.55
2017-11-12T02:19:18.403Z,9.45
2017-11-12T02:21:44.784Z,9.29
2017-11-12T02:24:12.064Z,9.21
2017-11-12T02:26:38.491Z,9.17
2017-11-12T02:29:04.859Z,9.15
2017-11-12T02:31:31.361Z,9.15
2017-11-12T02:33:57.796Z,9.13
2017-11-12T02:36:24.231Z,9.14
2017-11-12T02:38:50.665Z,9.09
2017-11-12T02:41:17.819Z,9.06
2017-11-12T02:43:44.281Z,8.98
2017-11-12T02:46:10.797Z,8.99
2017-11-12T02:48:37.231Z,8.92
2017-11-12T02:51:03.659Z,9.02
2017-11-12T02:53:30.092Z,9.03
2017-11-12T02:55:56.527Z,9.03
2017-11-12T02:58:23.679Z,8.88
2017-11-12T03:00:50.115Z,9.00
2017-11-12T03:03:16.547Z,8.93
2017-11-12T03:05:42.927Z,8.90
2017-11-12T03:08:09.426Z,8.90
2017-11-12T03:10:35.878Z,8.88
2017-11-12T03:13:02.398Z,8.85
2017-11-12T03:15:29.549Z,8.81
2017-11-12T03:17:55.908Z,8.67
2017-11-12T03:20:22.384Z,8.54
2017-11-12T03:22:48.827Z,8.49
2017-11-12T03:25:15.310Z,8.52
2017-11-12T03:27:41.716Z,8.55
2017-11-12T03:30:08.158Z,8.65
2017-11-12T03:32:35.406Z,8.60
2017-11-12T03:35:01.845Z,8.47
2017-11-12T03:37:28.272Z,8.36
2017-11-12T03:39:54.707Z,8.22
2017-11-12T03:42:21.251Z,8.44
2017-11-12T03:44:47.712Z,8.44
2017-11-12T03:47:14.115Z,8.48
2017-11-12T03:49:41.370Z,8.55
2017-11-12T03:52:07.803Z,8.52
2017-11-12T03:54:34.245Z,8.52
2017-11-12T03:57:00.671Z,8.50
2017-11-12T03:59:27.105Z,8.59
2017-11-12T04:01:53.539Z,8.63
2017-11-12T04:04:20.077Z,8.72
2017-11-12T04:06:47.136Z,8.77
2017-11-12T04:09:13.562Z,8.80
2017-11-12T04:11:40.003Z,8.79
2017-11-12T04:14:06.431Z,8.77
2017-11-12T04:16:32.808Z,8.70
2017-11-12T04:18:59.198Z,8.64
2017-11-12T04:21:25.632Z,8.71
2017-11-12T04:23:52.820Z,8.70
2017-11-12T04:26:19.218Z,8.64
2017-11-12T04:28:45.552Z,8.50
2017-11-12T04:31:11.985Z,8.49
2017-11-12T04:33:38.421Z,8.49
2017-11-12T04:36:04.859Z,8.46
2017-11-12T04:38:31.298Z,8.45
2017-11-12T04:40:58.340Z,8.47
2017-11-12T04:43:24.696Z,8.47
2017-11-12T04:45:51.135Z,8.50
2017-11-12T04:48:17.651Z,8.56
2017-11-12T04:50:44.048Z,8.55
2017-11-12T04:53:10.515Z,8.56
2017-11-12T04:55:36.949Z,8.58
2017-11-12T04:58:04.137Z,8.54
2017-11-12T05:00:30.535Z,8.38
2017-11-12T05:02:56.977Z,8.45
2017-11-12T05:05:23.413Z,8.36
2017-11-12T05:07:49.804Z,8.31
2017-11-12T05:10:16.271Z,8.26
2017-11-12T05:12:42.714Z,8.23
2017-11-12T05:15:09.961Z,8.23
2017-11-12T05:17:36.383Z,8.21
2017-11-12T05:20:02.835Z,8.23
2017-11-12T05:22:29.263Z,8.25
2017-11-12T05:24:55.700Z,8.27
2017-11-12T05:27:22.139Z,8.29
2017-11-12T05:29:48.598Z,8.35
2017-11-12T05:32:15.822Z,8.46
2017-11-12T05:34:42.256Z,8.39
2017-11-12T05:37:08.699Z,8.51
2017-11-12T05:39:35.126Z,8.54
2017-11-12T05:42:01.560Z,8.59
2017-11-12T05:44:27.996Z,8.69
2017-11-12T05:46:54.368Z,8.77
2017-11-12T05:49:21.691Z,8.88
2017-11-12T05:51:48.119Z,8.88
2017-11-12T05:54:14.491Z,8.95
2017-11-12T05:56:40.884Z,9.08
2017-11-12T05:59:07.320Z,9.07
2017-11-12T06:01:33.754Z,9.10
2017-11-12T06:04:00.189Z,9.22
2017-11-12T06:06:27.443Z,9.37
2017-11-12T06:08:53.776Z,9.44
2017-11-12T06:11:20.218Z,9.33
2017-11-12T06:13:46.615Z,9.46
2017-11-12T06:16:13.089Z,9.41
2017-11-12T06:18:39.616Z,9.38
2017-11-12T06:21:06.059Z,9.30
2017-11-12T06:23:33.104Z,9.28
2017-11-12T06:25:59.535Z,9.21
2017-11-12T06:28:25.995Z,9.14
2017-11-12T06:30:52.407Z,9.11
2017-11-12T06:33:18.776Z,9.11
2017-11-12T06:35:45.274Z,9.13
2017-11-12T06:38:11.819Z,9.10
2017-11-12T06:40:38.900Z,9.13
2017-11-12T06:43:05.294Z,9.26
2017-11-12T06:45:31.833Z,9.50
2017-11-12T06:47:58.275Z,9.74
2017-11-12T06:50:24.697Z,9.92
2017-11-12T06:52:51.034Z,10.09
2017-11-12T06:55:17.469Z,10.27
2017-11-12T06:57:44.625Z,10.47
2017-11-12T07:00:11.053Z,10.57
2017-11-12T07:02:37.499Z,10.58
2017-11-12T07:05:03.932Z,10.70
2017-11-12T07:07:30.367Z,10.92
2017-11-12T07:09:56.792Z,11.16
2017-11-12T07:12:23.228Z,11.39
2017-11-12T07:14:50.490Z,11.60
2017-11-12T07:17:16.883Z,11.81
2017-11-12T07:19:43.358Z,12.01
2017-11-12T07:22:09.796Z,12.12
2017-11-12T07:24:36.220Z,12.29
2017-11-12T07:27:02.656Z,12.32
2017-11-12T07:29:29.089Z,12.45
2017-11-12T07:31:56.279Z,12.59
2017-11-12T07:34:22.750Z,12.72
2017-11-12T07:36:49.221Z,12.80
2017-11-12T07:39:15.668Z,12.96
2017-11-12T07:41:42.087Z,13.13
2017-11-12T07:44:08.527Z,13.28
2017-11-12T07:46:34.952Z,13.38
2017-11-12T07:49:02.206Z,13.55
2017-11-12T07:51:28.640Z,13.68
2017-11-12T07:53:55.016Z,13.80
2017-11-12T07:56:21.416Z,13.88
2017-11-12T07:58:47.799Z,13.99
2017-11-12T08:01:14.248Z,14.06
2017-11-12T08:03:40.718Z,14.24
2017-11-12T08:06:07.870Z,14.43
2017-11-12T08:08:34.296Z,14.51
2017-11-12T08:11:00.731Z,14.60
2017-11-12T08:13:27.053Z,14.73
2017-11-12T08:15:53.500Z,14.88
2017-11-12T08:18:19.941Z,15.03
2017-11-12T08:20:46.281Z,15.16
2017-11-12T08:23:13.499Z,15.32
2017-11-12T08:25:39.954Z,15.34
2017-11-12T08:28:06.398Z,15.32
2017-11-12T08:30:32.824Z,15.35
2017-11-12T08:32:59.195Z,15.45
2017-11-12T08:35:25.703Z,15.49
2017-11-12T08:37:52.128Z,15.62
2017-11-12T08:40:19.383Z,15.78
2017-11-12T08:42:45.819Z,15.94
2017-11-12T08:45:12.260Z,16.15
2017-11-12T08:47:38.694Z,16.31
2017-11-12T08:50:05.136Z,16.45
2017-11-12T08:52:31.665Z,16.61
2017-11-12T08:54:58.048Z,16.81
2017-11-12T08:57:25.345Z,16.96
2017-11-12T08:59:51.801Z,17.03
2017-11-12T09:02:18.215Z,17.16
2017-11-12T09:04:44.689Z,17.27
2017-11-12T09:07:11.093Z,17.27
2017-11-12T09:09:37.520Z,17.43
2017-11-12T09:12:03.940Z,17.49
2017-11-12T09:14:31.218Z,17.41
2017-11-12T09:16:57.585Z,17.50
2017-11-12T09:19:24.077Z,17.64
2017-11-12T09:21:50.522Z,17.76
2017-11-12T09:24:16.921Z,17.78
2017-11-12T09:26:43.389Z,17.84
2017-11-12T09:29:09.845Z,17.93
2017-11-12T09:31:37.070Z,18.05
2017-11-12T09:34:03.513Z,18.06
2017-11-12T09:36:29.940Z,18.03
2017-11-12T09:38:56.382Z,18.23
2017-11-12T09:41:22.922Z,18.39
2017-11-12T09:43:49.354Z,18.46
2017-11-12T09:46:15.812Z,18.71
2017-11-12T09:48:42.933Z,18.83
2017-11-12T09:51:09.375Z,19.04
2017-11-12T09:53:35.801Z,19.19
2017-11-12T09:56:02.191Z,19.38
2017-11-12T09:58:28.679Z,19.50
2017-11-12T10:00:55.040Z,19.52
2017-11-12T10:03:21.438Z,19.55
2017-11-12T10:05:48.692Z,19.71
2017-11-12T10:08:15.135Z,19.82
2017-11-12T10:10:41.562Z,20.03
2017-11-12T10:13:08.000Z,20.09
2017-11-12T10:15:34.373Z,20.16
2017-11-12T10:18:00.777Z,20.43
2017-11-12T10:20:27.208Z,20.55
2017-11-12T10:22:54.384Z,20.66
2017-11-12T10:25:20.715Z,20.78
2017-11-12T10:27:47.124Z,20.77
2017-11-12T10:30:13.496Z,20.95
2017-11-12T10:32:39.881Z,20.95
2017-11-12T10:35:06.325Z,21.00
2017-11-12T10:37:32.752Z,20.87
2017-11-12T10:39:59.289Z,20.88
2017-11-12T10:42:25.834Z,20.77
2017-11-12T10:44:52.261Z,20.87
2017-11-12T10:47:18.695Z,20.76
2017-11-12T10:49:45.139Z,20.61
2017-11-12T10:52:11.563Z,20.61
2017-11-12T10:54:37.934Z,20.62
2017-11-12T10:57:04.443Z,20.57
2017-11-12T10:59:30.810Z,20.47
2017-11-12T11:01:57.192Z,20.39
2017-11-12T11:04:23.607Z,20.28
2017-11-12T11:06:50.071Z,20.13
2017-11-12T11:09:16.454Z,20.05
2017-11-12T11:11:42.838Z,20.14
2017-11-12T11:14:09.172Z,20.39
2017-11-12T11:16:35.581Z,20.76
2017-11-12T11:19:02.049Z,21.09
2017-11-12T11:21:29.088Z,21.36
2017-11-12T11:23:55.492Z,21.75
2017-11-12T11:26:21.964Z,22.38
2017-11-12T11:28:48.414Z,22.43
2017-11-12T11:31:14.827Z,22.20
2017-11-12T11:33:41.262Z,22.25
2017-11-12T11:36:07.669Z,22.34
2017-11-12T11:38:34.864Z,22.47
2017-11-12T11:41:01.286Z,22.76
2017-11-12T11:43:27.929Z,22.85
2017-11-12T11:45:54.357Z,22.70
2017-11-12T11:48:20.792Z,22.35
2017-11-12T11:50:47.159Z,22.04
2017-11-12T11:53:13.540Z,21.98
2017-11-12T11:55:40.719Z,21.78
2017-11-12T11:58:07.045Z,21.43
2017-11-12T12:00:33.477Z,21.39
2017-11-12T12:02:59.921Z,21.52
2017-11-12T12:05:26.357Z,21.16
2017-11-12T12:07:52.772Z,21.16
2017-11-12T12:10:19.216Z,21.24
2017-11-12T12:12:46.403Z,21.09
2017-11-12T12:15:12.781Z,21.03
2017-11-12T12:17:39.172Z,20.93
2017-11-12T12:20:05.592Z,20.86
2017-11-12T12:22:31.979Z,20.78
2017-11-12T12:24:58.387Z,20.76
2017-11-12T12:27:24.863Z,20.74
2017-11-12T12:29:52.033Z,20.84
2017-11-12T12:32:18.420Z,20.85
2017-11-12T12:34:44.903Z,20.89
2017-11-12T12:37:11.444Z,20.70
2017-11-12T12:39:37.836Z,20.77
2017-11-12T12:42:04.300Z,20.82
2017-11-12T12:44:30.736Z,20.73
2017-11-12T12:46:57.886Z,20.67
2017-11-12T12:49:24.330Z,20.71
2017-11-12T12:51:50.764Z,20.69
2017-11-12T12:54:17.395Z,20.74
2017-11-12T12:56:43.845Z,20.95
2017-11-12T12:59:10.265Z,21.07
2017-11-12T13:01:36.708Z,21.19
2017-11-12T13:04:03.851Z,21.48
2017-11-12T13:06:30.306Z,21.56
2017-11-12T13:08:56.731Z,21.43
2017-11-12T13:11:23.162Z,21.40
2017-11-12T13:13:49.548Z,21.43
2017-11-12T13:16:16.016Z,21.30
2017-11-12T13:18:42.429Z,21.14
2017-11-12T13:21:09.610Z,20.86
2017-11-12T13:23:36.071Z,20.73
2017-11-12T13:26:02.548Z,20.55
2017-11-12T13:28:29.049Z,20.47
2017-11-12T13:30:55.453Z,20.39
2017-11-12T13:33:21.998Z,20.24
2017-11-12T13:35:48.447Z,20.19
2017-11-12T13:38:15.511Z,20.00
2017-11-12T13:40:41.907Z,19.88
2017-11-12T13:43:08.341Z,19.86
2017-11-12T13:45:34.779Z,19.79
2017-11-12T13:48:01.211Z,19.68
2017-11-12T13:50:27.651Z,19.54
2017-11-12T13:52:53.978Z,19.48
2017-11-12T13:55:21.130Z,19.45
2017-11-12T13:57:47.573Z,19.40
2017-11-12T14:00:14.000Z,19.34
2017-11-12T14:02:40.404Z,19.19
2017-11-12T14:05:06.766Z,19.10
2017-11-12T14:07:33.099Z,19.00
2017-11-12T14:09:59.541Z,18.92
2017-11-12T14:12:26.674Z,18.87
2017-11-12T14:14:53.120Z,18.81
2017-11-12T14:17:19.554Z,18.76
2017-11-12T14:19:45.989Z,18.89
2017-11-12T14:22:12.423Z,19.38
2017-11-12T14:24:38.858Z,20.19
2017-11-12T14:27:05.262Z,21.05
2017-11-12T14:29:31.728Z,21.54
2017-11-12T14:31:58.153Z,21.48
2017-11-12T14:34:24.539Z,21.09
2017-11-12T14:36:50.865Z,20.74
2017-11-12T14:39:17.372Z,20.35
2017-11-12T14:41:43.802Z,19.97
2017-11-12T14:44:10.262Z,19.54
2017-11-12T14:46:37.385Z,19.16
2017-11-12T14:49:03.821Z,18.81
2017-11-12T14:51:30.263Z,18.48
2017-11-12T14:53:56.695Z,18.22
2017-11-12T14:56:23.131Z,17.95
2017-11-12T14:58:49.561Z,17.71
2017-11-12T15:01:16.004Z,17.48
2017-11-12T15:03:43.259Z,17.27
2017-11-12T15:06:09.685Z,17.09
2017-11-12T15:08:36.120Z,16.90
2017-11-12T15:11:02.522Z,16.81
2017-11-12T15:13:28.995Z,16.67
2017-11-12T15:15:55.421Z,16.48
2017-11-12T15:18:21.957Z,16.25
2017-11-12T15:20:49.118Z,16.08
2017-11-12T15:23:15.545Z,15.99
2017-11-12T15:25:41.978Z,15.88
2017-11-12T15:28:08.397Z,15.79
2017-11-12T15:30:34.850Z,15.70
2017-11-12T15:33:01.215Z,15.60
2017-11-12T15:35:27.615Z,15.50
2017-11-12T15:37:54.877Z,15.43
2017-11-12T15:40:21.414Z,15.44
2017-11-12T15:42:47.841Z,15.37
2017-11-12T15:45:14.291Z,15.30
2017-11-12T15:47:40.718Z,15.19
2017-11-12T15:50:07.144Z,15.07
2017-11-12T15:52:34.100Z,14.96
2017-11-12T15:55:00.842Z,14.85
2017-11-12T15:57:27.268Z,14.82
2017-11-12T15:59:53.703Z,14.80
2017-11-12T16:02:20.138Z,14.70
2017-11-12T16:04:46.572Z,14.62
2017-11-12T16:07:13.027Z,14.55
2017-11-12T16:09:39.441Z,14.56
2017-11-12T16:12:06.704Z,14.58
2017-11-12T16:14:33.027Z,14.52
2017-11-12T16:16:59.470Z,14.48
2017-11-12T16:19:25.869Z,14.44
2017-11-12T16:21:52.332Z,14.35
2017-11-12T16:24:18.776Z,14.26
2017-11-12T16:26:45.144Z,14.19
2017-11-12T16:29:12.400Z,14.09
2017-11-12T16:31:38.875Z,14.09
2017-11-12T16:34:05.327Z,14.12
2017-11-12T16:36:31.758Z,14.15
2017-11-12T16:38:58.193Z,14.14
2017-11-12T16:41:24.595Z,14.10
2017-11-12T16:43:51.068Z,14.00
2017-11-12T16:46:18.160Z,13.93
2017-11-12T16:48:44.652Z,13.87
2017-11-12T16:51:11.084Z,13.81
2017-11-12T16:53:37.552Z,13.75
2017-11-12T16:56:03.953Z,13.66
2017-11-12T16:58:30.392Z,13.68
2017-11-12T17:00:56.823Z,13.68
2017-11-12T17:03:24.084Z,13.70
2017-11-12T17:05:50.500Z,13.69
2017-11-12T17:08:16.958Z,13.67
2017-11-12T17:10:43.315Z,13.67
2017-11-12T17:13:09.831Z,13.67
2017-11-12T17:15:36.252Z,13.64
2017-11-12T17:18:02.688Z,13.61
2017-11-12T17:20:29.844Z,13.59
2017-11-12T17:22:56.279Z,13.58
2017-11-12T17:25:22.707Z,13.59
2017-11-12T17:27:49.141Z,13.56
2017-11-12T17:30:15.584Z,13.56
2017-11-12T17:32:41.907Z,13.53
2017-11-12T17:35:08.328Z,13.46
2017-11-12T17:37:35.494Z,13.43
2017-11-12T17:40:01.938Z,13.44
2017-11-12T17:42:28.363Z,13.37
2017-11-12T17:44:54.800Z,13.22
2017-11-12T17:47:21.233Z,13.29
2017-11-12T17:49:47.668Z,13.27
2017-11-12T17:52:14.103Z,13.20
2017-11-12T17:54:41.380Z,13.12
2017-11-12T17:57:07.790Z,13.08
2017-11-12T17:59:34.197Z,13.15
2017-11-12T18:02:00.669Z,13.14
2017-11-12T18:04:27.094Z,13.13
2017-11-12T18:06:53.530Z,13.09
2017-11-12T18:09:19.988Z,13.04
2017-11-12T18:11:47.129Z,13.10
2017-11-12T18:14:13.559Z,12.96
2017-11-12T18:16:39.984Z,13.07
2017-11-12T18:19:06.392Z,13.13
2017-11-12T18:21:32.863Z,13.15
2017-11-12T18:23:59.230Z,13.15
2017-11-12T18:26:25.734Z,13.10
2017-11-12T18:28:52.772Z,13.32
2017-11-12T18:31:19.212Z,13.35
2017-11-12T18:33:45.663Z,13.26
2017-11-12T18:36:12.077Z,13.12
2017-11-12T18:38:38.525Z,13.30
2017-11-12T18:41:04.946Z,13.24
2017-11-12T18:43:31.320Z,13.21
2017-11-12T18:45:58.605Z,13.20
2017-11-12T18:48:25.073Z,13.17
2017-11-12T18:50:51.504Z,13.15
2017-11-12T18:53:17.939Z,13.18
2017-11-12T18:55:44.383Z,13.15
2017-11-12T18:58:10.807Z,13.16
2017-11-12T19:00:37.251Z,13.04
2017-11-12T19:03:04.498Z,13.20
2017-11-12T19:05:30.957Z,13.19
2017-11-12T19:07:57.368Z,13.17
2017-11-12T19:10:23.799Z,13.21
2017-11-12T19:12:50.133Z,13.24
2017-11-12T19:15:16.568Z,13.19
2017-11-12T19:17:43.016Z,13.13
2017-11-12T19:20:10.258Z,13.08
2017-11-12T19:22:36.709Z,13.10
2017-11-12T19:25:03.147Z,13.04
2017-11-12T19:27:29.564Z,13.06
2017-11-12T19:29:55.995Z,13.14
2017-11-12T19:32:22.364Z,13.20
2017-11-12T19:34:48.731Z,13.17
2017-11-12T19:37:16.024Z,13.21
2017-11-12T19:39:42.404Z,13.24
2017-11-12T19:42:08.887Z,13.30
2017-11-12T19:44:35.321Z,13.36
2017-11-12T19:47:01.764Z,13.46
2017-11-12T19:49:28.199Z,13.50
2017-11-12T19:51:54.624Z,13.57
2017-11-12T19:54:21.870Z,13.56
2017-11-12T19:56:48.331Z,13.59
2017-11-12T19:59:14.749Z,13.60
2017-11-12T20:01:41.216Z,13.59
2017-11-12T20:04:07.625Z,13.54
2017-11-12T20:06:34.060Z,13.59
2017-11-12T20:09:00.425Z,13.55
2017-11-12T20:11:27.641Z,13.57
2017-11-12T20:13:54.074Z,13.64
2017-11-12T20:16:20.509Z,13.69
2017-11-12T20:18:46.952Z,13.73
2017-11-12T20:21:13.486Z,13.73
2017-11-12T20:23:39.914Z,13.73
2017-11-12T20:26:06.370Z,13.71
2017-11-12T20:28:33.511Z,13.75
2017-11-12T20:31:00.065Z,13.75
2017-11-12T20:33:26.407Z,13.71
2017-11-12T20:35:52.744Z,13.70
2017-11-12T20:38:19.269Z,13.68
2017-11-12T20:40:45.693Z,13.65
2017-11-12T20:43:12.108Z,13.62
2017-11-12T20:45:39.260Z,13.59
2017-11-12T20:48:05.695Z,13.59
2017-11-12T20:50:32.149Z,13.57
2017-11-12T20:52:58.564Z,13.61
2017-11-12T20:55:25.007Z,13.55
2017-11-12T20:57:51.544Z,13.65
2017-11-12T21:00:17.978Z,13.65
2017-11-12T21:02:45.121Z,13.62
2017-11-12T21:05:11.564Z,13.61
2017-11-12T21:07:37.994Z,13.63
2017-11-12T21:10:04.426Z,13.71
2017-11-12T21:12:30.868Z,13.77
2017-11-12T21:14:57.307Z,13.84
2017-11-12T21:17:23.833Z,13.89
2017-11-12T21:19:50.886Z,13.93
2017-11-12T21:22:17.250Z,13.99
2017-11-12T21:24:43.648Z,14.04
2017-11-12T21:27:10.090Z,14.09
2017-11-12T21:29:36.527Z,14.19
2017-11-12T21:32:03.002Z,14.28
2017-11-12T21:34:29.490Z,14.40
2017-11-12T21:36:56.670Z,14.46
2017-11-12T21:39:23.096Z,14.56
2017-11-12T21:41:49.622Z,14.73
2017-11-12T21:44:16.075Z,14.83
2017-11-12T21:46:42.588Z,14.86
2017-11-12T21:49:09.048Z,15.04
2017-11-12T21:51:35.457Z,15.18
2017-11-12T21:54:02.707Z,15.26
2017-11-12T21:56:29.043Z,15.33
2017-11-12T21:58:55.484Z,15.42
2017-11-12T22:01:21.900Z,15.49
2017-11-12T22:03:48.320Z,15.57
2017-11-12T22:06:14.779Z,15.61
2017-11-12T22:08:41.222Z,15.81
2017-11-12T22:11:08.403Z,15.87
2017-11-12T22:13:34.740Z,15.94
2017-11-12T22:16:01.244Z,15.92
2017-11-12T22:18:27.670Z,15.88
2017-11-12T22:20:54.104Z,15.90
2017-11-12T22:23:20.548Z,15.90
2017-11-12T22:25:46.982Z,15.87
2017-11-12T22:28:14.330Z,15.90
2017-11-12T22:30:40.773Z,15.85
2017-11-12T22:33:07.199Z,15.82
2017-11-12T22:35:33.635Z,15.77
2017-11-12T22:38:00.045Z,15.75
2017-11-12T22:40:26.504Z,15.74
2017-11-12T22:42:52.939Z,15.82
2017-11-12T22:45:20.192Z,15.75
2017-11-12T22:47:46.637Z,15.74
2017-11-12T22:50:13.063Z,15.64
2017-11-12T22:52:39.510Z,15.64
2017-11-12T22:55:05.900Z,15.62
2017-11-12T22:57:32.374Z,15.63
2017-11-12T22:59:59.991Z,15.69
2017-11-12T23:02:26.400Z,15.67
2017-11-12T23:04:52.907Z,15.67
2017-11-12T23:07:19.336Z,15.71
2017-11-12T23:09:45.779Z,15.75
2017-11-12T23:12:12.206Z,15.71
2017-11-12T23:14:38.744Z,15.71
2017-11-12T23:17:05.072Z,15.69
2017-11-12T23:19:32.438Z,15.63
2017-11-12T23:21:58.863Z,15.63
2017-11-12T23:24:25.298Z,15.67
2017-11-12T23:26:51.734Z,15.74
2017-11-12T23:29:18.167Z,15.75
2017-11-12T23:31:44.611Z,15.69
2017-11-12T23:34:11.056Z,15.68
2017-11-12T23:36:38.299Z,15.71
2017-11-12T23:39:04.664Z,15.77
2017-11-12T23:41:31.058Z,15.79
2017-11-12T23:43:57.492Z,15.86
2017-11-12T23:46:23.927Z,15.89
2017-11-12T23:48:50.319Z,15.83
2017-11-12T23:51:16.791Z,16.02
2017-11-12T23:53:43.930Z,16.00
2017-11-12T23:56:10.351Z,15.97
2017-11-12T23:58:36.824Z,15.99
